Time;durP1;ratioP1;P1;durP2;ratioP2;P2;SDS_P1;SDS_P2;PMS_P1;PMS_P2;Temp;Humidity;BMP_temperature;BMP_pressure;BME280_temperature;BME280_humidity;BME280_pressure;Samples;Min_cycle;Max_cycle;Signal;HPM_P1;HPM_P2
2021/07/16 00:01:23;;;;;;;1.70;0.60;;;;;;;;;;4956858;29;20054;-86
2021/07/16 00:03:51;;;;;;;1.38;0.57;;;;;;;;;;4956512;29;20052;-85
2021/07/16 00:06:18;;;;;;;1.27;0.60;;;;;;;;;;4955833;29;20082;-84
2021/07/16 00:08:45;;;;;;;0.68;0.50;;;;;;;;;;4956606;29;20058;-84
2021/07/16 00:11:12;;;;;;;1.35;0.60;;;;;;;;;;4951097;29;20047;-85
2021/07/16 00:13:39;;;;;;;2.35;0.80;;;;;;;;;;4962587;29;20051;-86
2021/07/16 00:16:06;;;;;;;2.35;0.90;;;;;;;;;;4960354;28;20489;-86
2021/07/16 00:18:33;;;;;;;1.85;0.70;;;;;;;;;;4961831;29;20054;-85
2021/07/16 00:21:02;;;;;;;3.35;0.85;;;;;;;;;;4960197;28;20047;-86
2021/07/16 00:23:29;;;;;;;2.65;0.82;;;;;;;;;;4958846;29;20054;-86
2021/07/16 00:25:56;;;;;;;4.13;1.10;;;;;;;;;;4956540;28;20554;-84
2021/07/16 00:28:23;;;;;;;2.63;1.10;;;;;;;;;;4965057;28;20047;-84
2021/07/16 00:30:50;;;;;;;2.58;0.70;;;;;;;;;;4957393;29;20500;-83
2021/07/16 00:33:17;;;;;;;1.88;0.70;;;;;;;;;;4955664;29;20047;-83
2021/07/16 00:35:45;;;;;;;1.60;0.70;;;;;;;;;;4955108;29;20048;-83
2021/07/16 00:38:14;;;;;;;1.52;0.90;;;;;;;;;;4956004;28;20122;-83
2021/07/16 00:40:41;;;;;;;1.98;0.80;;;;;;;;;;4955533;29;20047;-84
2021/07/16 00:43:08;;;;;;;3.13;1.23;;;;;;;;;;4968955;23;20055;-79
2021/07/16 00:45:35;;;;;;;1.27;0.82;;;;;;;;;;4984521;28;20105;-79
2021/07/16 00:48:02;;;;;;;3.60;1.15;;;;;;;;;;4988470;28;20055;-82
2021/07/16 00:50:31;;;;;;;4.13;0.73;;;;;;;;;;4987615;28;20100;-81
2021/07/16 00:52:59;;;;;;;2.60;0.80;;;;;;;;;;4987900;28;20454;-82
2021/07/16 00:55:27;;;;;;;2.38;1.00;;;;;;;;;;5005898;28;20081;-81
2021/07/16 00:57:55;;;;;;;1.73;0.80;;;;;;;;;;5006974;28;20050;-81
2021/07/16 01:00:22;;;;;;;2.88;0.90;;;;;;;;;;5003035;28;20043;-81
2021/07/16 01:02:48;;;;;;;4.30;0.90;;;;;;;;;;4987115;28;20054;-80
2021/07/16 01:05:18;;;;;;;2.22;0.85;;;;;;;;;;4985192;28;20570;-81
2021/07/16 01:07:46;;;;;;;2.25;0.88;;;;;;;;;;4986122;28;20074;-81
2021/07/16 01:10:13;;;;;;;2.22;0.60;;;;;;;;;;4986042;28;20109;-82
2021/07/16 01:12:43;;;;;;;3.13;1.17;;;;;;;;;;4999881;28;20077;-81
2021/07/16 01:15:14;;;;;;;3.80;1.15;;;;;;;;;;5005015;28;20046;-82
2021/07/16 01:17:41;;;;;;;1.70;1.00;;;;;;;;;;5005294;28;20478;-81
2021/07/16 01:20:10;;;;;;;3.17;1.13;;;;;;;;;;5005060;28;20085;-82
2021/07/16 01:22:40;;;;;;;2.38;0.95;;;;;;;;;;5005691;28;20072;-81
2021/07/16 01:25:12;;;;;;;3.47;1.08;;;;;;;;;;5004322;28;20054;-80
2021/07/16 01:27:39;;;;;;;2.50;0.90;;;;;;;;;;5004166;28;20050;-81
2021/07/16 01:30:10;;;;;;;2.95;1.00;;;;;;;;;;5005402;28;20109;-81
2021/07/16 01:32:37;;;;;;;3.38;1.55;;;;;;;;;;5007684;28;20105;-81
2021/07/16 01:35:05;;;;;;;3.30;1.50;;;;;;;;;;5009171;28;20058;-81
2021/07/16 01:37:32;;;;;;;2.22;1.00;;;;;;;;;;5009612;28;20046;-80
2021/07/16 01:39:59;;;;;;;2.88;1.10;;;;;;;;;;5009967;28;20059;-81
2021/07/16 01:42:34;;;;;;;1.65;0.70;;;;;;;;;;5009276;28;20050;-82
2021/07/16 01:45:04;;;;;;;2.60;0.80;;;;;;;;;;5009619;28;20129;-81
2021/07/16 01:47:30;;;;;;;1.20;0.60;;;;;;;;;;5010432;28;20069;-81
2021/07/16 01:49:57;;;;;;;1.77;0.80;;;;;;;;;;5011081;28;20046;-81
2021/07/16 01:52:24;;;;;;;1.63;0.70;;;;;;;;;;5011780;28;20046;-80
2021/07/16 01:54:51;;;;;;;3.53;1.20;;;;;;;;;;5016504;28;20043;-81
2021/07/16 01:57:17;;;;;;;2.35;1.10;;;;;;;;;;5010674;28;20557;-82
2021/07/16 01:59:46;;;;;;;2.97;1.23;;;;;;;;;;5008457;28;20050;-80
2021/07/16 02:02:12;;;;;;;3.22;1.10;;;;;;;;;;5007012;28;20046;-80
2021/07/16 02:04:39;;;;;;;2.67;1.30;;;;;;;;;;5005946;28;20106;-81
2021/07/16 02:07:06;;;;;;;4.00;1.73;;;;;;;;;;5006338;28;20062;-81
2021/07/16 02:09:33;;;;;;;2.90;0.90;;;;;;;;;;5007050;28;20054;-81
2021/07/16 02:12:00;;;;;;;2.50;1.00;;;;;;;;;;5005455;28;20038;-80
2021/07/16 02:14:27;;;;;;;3.17;0.80;;;;;;;;;;5001635;28;20082;-79
2021/07/16 02:16:55;;;;;;;1.38;0.70;;;;;;;;;;5001061;28;20050;-79
2021/07/16 02:19:22;;;;;;;2.90;0.70;;;;;;;;;;4984321;28;20047;-81
2021/07/16 02:21:49;;;;;;;3.97;0.80;;;;;;;;;;4980759;28;20512;-81
2021/07/16 02:24:16;;;;;;;3.47;0.80;;;;;;;;;;4982005;28;20240;-80
2021/07/16 02:26:43;;;;;;;3.45;1.33;;;;;;;;;;4982450;28;20050;-80
2021/07/16 02:29:10;;;;;;;2.25;0.70;;;;;;;;;;4983006;28;20097;-81
2021/07/16 02:31:37;;;;;;;1.70;0.63;;;;;;;;;;4983686;28;20046;-82
2021/07/16 02:34:05;;;;;;;1.70;0.55;;;;;;;;;;4985983;28;20051;-81
2021/07/16 02:36:32;;;;;;;1.73;0.70;;;;;;;;;;4986858;28;20051;-80
2021/07/16 02:38:59;;;;;;;1.20;0.60;;;;;;;;;;4988816;28;20411;-81
2021/07/16 02:41:25;;;;;;;2.53;0.70;;;;;;;;;;4989099;28;20043;-82
2021/07/16 02:43:52;;;;;;;1.45;0.57;;;;;;;;;;4989023;28;20113;-81
2021/07/16 02:46:19;;;;;;;1.70;0.60;;;;;;;;;;4988041;28;20043;-82
2021/07/16 02:48:46;;;;;;;1.52;0.63;;;;;;;;;;4989406;28;20058;-81
2021/07/16 02:51:14;;;;;;;2.63;0.60;;;;;;;;;;4993795;28;20043;-81
2021/07/16 02:53:41;;;;;;;1.23;0.40;;;;;;;;;;4990653;28;20070;-82
2021/07/16 02:56:08;;;;;;;1.35;0.50;;;;;;;;;;4992565;28;20055;-81
2021/07/16 02:58:34;;;;;;;1.63;0.52;;;;;;;;;;4989986;28;20070;-80
2021/07/16 03:01:01;;;;;;;1.25;0.50;;;;;;;;;;4998814;28;20046;-81
2021/07/16 03:03:28;;;;;;;2.80;0.73;;;;;;;;;;5010393;28;20057;-81
2021/07/16 03:05:55;;;;;;;2.28;1.00;;;;;;;;;;5010310;28;20043;-82
2021/07/16 03:08:23;;;;;;;2.88;0.85;;;;;;;;;;5009916;28;20569;-81
2021/07/16 03:10:50;;;;;;;2.53;1.00;;;;;;;;;;5009809;28;20057;-80
2021/07/16 03:13:18;;;;;;;3.45;1.33;;;;;;;;;;4990846;28;20055;-81
2021/07/16 03:15:46;;;;;;;1.88;0.85;;;;;;;;;;4985164;28;20101;-81
2021/07/16 03:18:13;;;;;;;2.90;1.50;;;;;;;;;;4978216;28;20082;-81
2021/07/16 03:20:41;;;;;;;3.17;1.50;;;;;;;;;;4978233;28;20047;-81
2021/07/16 03:23:09;;;;;;;1.77;0.80;;;;;;;;;;4978175;28;20046;-81
2021/07/16 03:25:38;;;;;;;3.15;0.90;;;;;;;;;;4977554;28;20055;-81
2021/07/16 03:28:07;;;;;;;1.80;0.70;;;;;;;;;;4978127;28;20094;-81
2021/07/16 03:30:34;;;;;;;2.25;0.88;;;;;;;;;;4978522;28;20051;-81
2021/07/16 03:33:01;;;;;;;1.33;0.47;;;;;;;;;;4978823;28;20051;-81
2021/07/16 03:35:29;;;;;;;1.20;0.55;;;;;;;;;;4978706;28;20094;-81
2021/07/16 03:37:56;;;;;;;1.40;0.60;;;;;;;;;;4979786;28;20062;-81
2021/07/16 03:40:27;;;;;;;1.00;0.50;;;;;;;;;;4978278;28;20121;-81
2021/07/16 03:42:55;;;;;;;1.42;0.50;;;;;;;;;;4977933;28;20042;-81
2021/07/16 03:45:22;;;;;;;2.28;0.70;;;;;;;;;;4978183;28;20110;-80
2021/07/16 03:47:50;;;;;;;2.70;0.80;;;;;;;;;;4978110;28;20496;-80
2021/07/16 03:50:20;;;;;;;0.77;0.47;;;;;;;;;;4978382;28;20050;-80
2021/07/16 03:52:46;;;;;;;1.63;0.60;;;;;;;;;;4977975;28;20058;-81
2021/07/16 03:55:14;;;;;;;2.78;0.50;;;;;;;;;;4976470;28;20106;-81
2021/07/16 03:57:45;;;;;;;1.23;0.50;;;;;;;;;;4978031;28;20055;-80
2021/07/16 04:00:15;;;;;;;1.48;0.70;;;;;;;;;;4977931;28;20109;-81
2021/07/16 04:02:43;;;;;;;2.63;0.90;;;;;;;;;;4977690;28;20109;-81
2021/07/16 04:05:11;;;;;;;3.88;1.90;;;;;;;;;;4977222;28;20055;-81
2021/07/16 04:07:45;;;;;;;3.72;2.17;;;;;;;;;;4978128;28;20412;-81
2021/07/16 04:10:13;;;;;;;3.08;1.00;;;;;;;;;;4977913;28;20055;-81
2021/07/16 04:12:39;;;;;;;1.63;0.60;;;;;;;;;;4977103;28;20046;-80
2021/07/16 04:15:07;;;;;;;0.95;0.60;;;;;;;;;;4976545;28;20050;-81
2021/07/16 04:17:36;;;;;;;1.85;0.55;;;;;;;;;;4977549;28;20083;-82
2021/07/16 04:20:03;;;;;;;2.35;0.77;;;;;;;;;;4977740;28;20047;-81
2021/07/16 04:22:30;;;;;;;1.63;0.80;;;;;;;;;;4977595;28;20102;-81
2021/07/16 04:24:56;;;;;;;1.27;0.70;;;;;;;;;;4977135;28;20042;-81
2021/07/16 04:27:23;;;;;;;2.42;0.82;;;;;;;;;;4977617;28;20050;-81
2021/07/16 04:29:50;;;;;;;2.35;0.80;;;;;;;;;;4980653;28;20113;-81
2021/07/16 04:32:17;;;;;;;1.85;0.80;;;;;;;;;;4984438;28;20047;-80
2021/07/16 04:34:45;;;;;;;5.68;3.03;;;;;;;;;;4984216;28;20046;-81
2021/07/16 04:37:12;;;;;;;4.60;1.60;;;;;;;;;;4978827;28;20051;-81
2021/07/16 04:39:39;;;;;;;2.33;1.05;;;;;;;;;;4978838;28;20101;-82
2021/07/16 04:42:07;;;;;;;1.30;0.50;;;;;;;;;;4978257;28;20523;-82
2021/07/16 04:44:33;;;;;;;3.03;0.90;;;;;;;;;;4977046;28;20051;-81
2021/07/16 04:47:00;;;;;;;3.10;0.82;;;;;;;;;;4981875;28;20043;-82
2021/07/16 04:49:28;;;;;;;2.30;0.70;;;;;;;;;;4984045;28;20055;-83
2021/07/16 04:51:56;;;;;;;1.75;0.68;;;;;;;;;;4986485;28;20051;-82
2021/07/16 04:54:23;;;;;;;1.25;0.60;;;;;;;;;;4986614;28;20070;-82
2021/07/16 04:56:50;;;;;;;2.35;0.77;;;;;;;;;;4987010;28;20051;-82
2021/07/16 04:59:17;;;;;;;1.23;0.50;;;;;;;;;;4986241;28;20081;-81
2021/07/16 05:01:44;;;;;;;2.90;1.10;;;;;;;;;;5009006;28;20054;-82
2021/07/16 05:04:11;;;;;;;2.42;0.50;;;;;;;;;;5017812;28;20038;-83
2021/07/16 05:06:38;;;;;;;2.05;0.60;;;;;;;;;;5017323;28;20077;-82
2021/07/16 05:09:06;;;;;;;2.63;0.70;;;;;;;;;;5003246;28;20050;-82
2021/07/16 05:11:36;;;;;;;1.35;0.57;;;;;;;;;;5000185;28;20116;-82
2021/07/16 05:14:03;;;;;;;1.33;0.60;;;;;;;;;;5001097;28;20042;-81
2021/07/16 05:16:30;;;;;;;1.02;0.60;;;;;;;;;;5001289;28;20046;-82
2021/07/16 05:18:56;;;;;;;1.98;0.63;;;;;;;;;;5006538;28;20403;-81
2021/07/16 05:21:24;;;;;;;2.72;0.68;;;;;;;;;;5001444;28;20082;-81
2021/07/16 05:23:51;;;;;;;3.03;0.85;;;;;;;;;;5001569;28;20050;-81
2021/07/16 05:26:20;;;;;;;1.42;0.60;;;;;;;;;;5001136;28;20050;-81
2021/07/16 05:28:49;;;;;;;1.55;0.63;;;;;;;;;;5004944;28;20050;-81
2021/07/16 05:31:16;;;;;;;4.10;1.08;;;;;;;;;;5002026;28;20357;-82
2021/07/16 05:33:43;;;;;;;1.88;0.75;;;;;;;;;;4998279;28;20050;-82
2021/07/16 05:36:10;;;;;;;1.60;1.10;;;;;;;;;;4997217;28;20046;-81
2021/07/16 05:38:37;;;;;;;2.83;0.82;;;;;;;;;;4997985;28;20070;-80
2021/07/16 05:41:04;;;;;;;2.10;0.85;;;;;;;;;;4998751;28;20050;-81
2021/07/16 05:43:32;;;;;;;2.63;1.15;;;;;;;;;;4997976;28;20828;-82
2021/07/16 05:45:59;;;;;;;2.85;1.00;;;;;;;;;;5000494;28;20420;-81
2021/07/16 05:48:26;;;;;;;3.00;1.10;;;;;;;;;;5003131;28;20421;-81
2021/07/16 05:50:53;;;;;;;2.63;1.30;;;;;;;;;;4998740;28;20070;-80
2021/07/16 05:53:20;;;;;;;3.30;1.23;;;;;;;;;;4999295;28;20058;-81
2021/07/16 05:55:47;;;;;;;2.92;1.42;;;;;;;;;;4998333;28;20055;-81
2021/07/16 05:58:14;;;;;;;4.25;1.73;;;;;;;;;;5000954;28;20054;-82
2021/07/16 06:00:42;;;;;;;3.90;1.67;;;;;;;;;;4999580;28;20046;-82
2021/07/16 06:03:09;;;;;;;3.78;1.85;;;;;;;;;;5006395;28;20057;-80
2021/07/16 06:05:36;;;;;;;5.28;2.13;;;;;;;;;;5006702;28;20137;-82
2021/07/16 06:08:05;;;;;;;5.03;2.13;;;;;;;;;;5005676;28;20047;-82
2021/07/16 06:10:32;;;;;;;4.00;2.00;;;;;;;;;;5006238;28;20097;-81
2021/07/16 06:13:00;;;;;;;3.45;1.90;;;;;;;;;;5002573;28;20054;-81
2021/07/16 06:15:27;;;;;;;6.93;2.95;;;;;;;;;;5002995;28;20046;-81
2021/07/16 06:17:55;;;;;;;4.78;2.30;;;;;;;;;;5007402;28;20081;-80
2021/07/16 06:20:22;;;;;;;5.43;2.80;;;;;;;;;;5012494;28;20053;-81
2021/07/16 06:22:48;;;;;;;5.78;2.80;;;;;;;;;;5009828;28;20046;-81
2021/07/16 06:25:17;;;;;;;4.30;2.75;;;;;;;;;;5009216;28;20050;-81
2021/07/16 06:27:45;;;;;;;5.68;3.00;;;;;;;;;;5010564;28;20050;-82
2021/07/16 06:30:14;;;;;;;4.28;2.38;;;;;;;;;;5007551;28;20125;-82
2021/07/16 06:32:41;;;;;;;4.93;2.83;;;;;;;;;;5005872;28;20042;-81
2021/07/16 06:35:10;;;;;;;5.53;2.63;;;;;;;;;;5004913;28;20562;-81
2021/07/16 06:37:37;;;;;;;4.37;2.90;;;;;;;;;;5005460;28;20092;-81
2021/07/16 06:40:06;;;;;;;3.63;2.15;;;;;;;;;;5006399;28;20050;-82
2021/07/16 06:42:33;;;;;;;5.13;2.50;;;;;;;;;;5006409;28;20047;-82
2021/07/16 06:45:00;;;;;;;4.53;2.70;;;;;;;;;;5021701;23;20041;-84
2021/07/16 06:47:26;;;;;;;3.47;2.20;;;;;;;;;;5015486;28;20077;-86
2021/07/16 06:49:53;;;;;;;3.85;2.30;;;;;;;;;;5009240;28;20046;-84
2021/07/16 06:52:21;;;;;;;3.60;2.10;;;;;;;;;;5003070;28;20046;-85
2021/07/16 06:54:48;;;;;;;3.95;2.05;;;;;;;;;;5001751;28;20077;-85
2021/07/16 06:57:15;;;;;;;13.65;2.33;;;;;;;;;;5002538;28;20047;-84
2021/07/16 06:59:41;;;;;;;3.53;1.90;;;;;;;;;;5001342;28;20112;-84
2021/07/16 07:02:09;;;;;;;4.05;1.83;;;;;;;;;;5002132;28;20042;-84
2021/07/16 07:04:36;;;;;;;4.18;2.17;;;;;;;;;;5000685;28;20074;-84
2021/07/16 07:07:02;;;;;;;4.80;1.98;;;;;;;;;;4987137;28;20804;-84
2021/07/16 07:09:31;;;;;;;4.93;2.72;;;;;;;;;;4979878;28;20054;-84
2021/07/16 07:11:58;;;;;;;4.03;1.80;;;;;;;;;;4971950;28;20114;-85
2021/07/16 07:14:24;;;;;;;3.63;2.10;;;;;;;;;;4960824;28;20051;-84
2021/07/16 07:16:51;;;;;;;4.13;2.50;;;;;;;;;;4960667;29;20059;-83
2021/07/16 07:19:18;;;;;;;6.47;4.43;;;;;;;;;;4961289;28;20055;-84
2021/07/16 07:21:45;;;;;;;4.63;2.88;;;;;;;;;;4961034;28;20054;-85
2021/07/16 07:24:12;;;;;;;6.38;4.20;;;;;;;;;;4959837;29;20055;-86
2021/07/16 07:26:44;;;;;;;7.18;3.58;;;;;;;;;;4960453;29;20055;-85
2021/07/16 07:29:11;;;;;;;17.88;10.55;;;;;;;;;;4958958;28;20090;-86
2021/07/16 07:31:40;;;;;;;21.88;17.00;;;;;;;;;;4960262;28;20043;-87
2021/07/16 07:34:12;;;;;;;4.57;3.10;;;;;;;;;;4962223;29;20043;-85
2021/07/16 07:36:40;;;;;;;4.55;2.08;;;;;;;;;;4960987;29;20050;-85
2021/07/16 07:39:07;;;;;;;3.70;2.20;;;;;;;;;;4960349;29;20051;-85
2021/07/16 07:41:36;;;;;;;3.45;2.05;;;;;;;;;;4961684;29;20051;-87
2021/07/16 07:44:07;;;;;;;4.68;2.40;;;;;;;;;;4963166;29;20051;-85
2021/07/16 07:46:34;;;;;;;3.45;1.90;;;;;;;;;;4963524;29;20043;-85
2021/07/16 07:49:01;;;;;;;2.97;1.70;;;;;;;;;;4963121;28;20059;-86
2021/07/16 07:51:34;;;;;;;5.10;2.70;;;;;;;;;;4960297;29;20464;-85
2021/07/16 07:54:01;;;;;;;8.68;5.85;;;;;;;;;;4955566;29;20134;-85
2021/07/16 07:56:31;;;;;;;6.80;2.10;;;;;;;;;;4956333;29;20107;-85
2021/07/16 07:58:58;;;;;;;3.57;1.70;;;;;;;;;;4955507;28;20051;-84
2021/07/16 08:01:26;;;;;;;3.70;1.70;;;;;;;;;;4956055;29;20047;-85
2021/07/16 08:03:53;;;;;;;3.78;1.50;;;;;;;;;;4957274;29;20059;-84
2021/07/16 08:06:20;;;;;;;2.72;1.55;;;;;;;;;;4956824;29;20043;-84
2021/07/16 08:08:47;;;;;;;4.82;2.47;;;;;;;;;;4956989;29;20051;-86
2021/07/16 08:11:13;;;;;;;6.18;3.55;;;;;;;;;;4961421;29;20084;-80
2021/07/16 08:13:40;;;;;;;5.72;3.13;;;;;;;;;;4970551;28;20048;-80
2021/07/16 08:16:07;;;;;;;5.90;3.72;;;;;;;;;;4975904;28;20555;-80
2021/07/16 08:18:35;;;;;;;4.43;2.15;;;;;;;;;;4974237;28;20074;-81
2021/07/16 08:21:02;;;;;;;2.80;1.80;;;;;;;;;;4974587;29;20051;-81
2021/07/16 08:23:28;;;;;;;4.07;2.38;;;;;;;;;;4984380;28;20101;-82
2021/07/16 08:25:55;;;;;;;3.90;2.35;;;;;;;;;;4978544;28;20051;-82
2021/07/16 08:28:22;;;;;;;3.53;2.13;;;;;;;;;;4978087;28;20078;-82
2021/07/16 08:30:49;;;;;;;12.40;9.05;;;;;;;;;;4978398;28;20054;-82
2021/07/16 08:33:16;;;;;;;3.83;2.45;;;;;;;;;;4978747;28;20098;-82
2021/07/16 08:35:44;;;;;;;3.38;1.95;;;;;;;;;;4977828;28;20074;-82
2021/07/16 08:38:11;;;;;;;3.90;2.15;;;;;;;;;;4979135;28;20045;-84
2021/07/16 08:40:38;;;;;;;3.10;1.95;;;;;;;;;;4982392;28;20116;-84
2021/07/16 08:43:06;;;;;;;3.47;2.13;;;;;;;;;;4979225;28;20113;-84
2021/07/16 08:45:33;;;;;;;4.45;2.65;;;;;;;;;;4979095;28;20054;-82
2021/07/16 08:48:01;;;;;;;3.60;2.15;;;;;;;;;;4978262;28;20043;-85
2021/07/16 08:50:28;;;;;;;4.97;1.98;;;;;;;;;;4976601;28;20058;-85
2021/07/16 08:53:02;;;;;;;3.65;2.20;;;;;;;;;;4977332;28;20085;-83
2021/07/16 08:55:32;;;;;;;4.50;2.45;;;;;;;;;;4978250;28;20066;-81
2021/07/16 08:57:59;;;;;;;3.95;2.38;;;;;;;;;;4962444;28;20047;-78
2021/07/16 09:00:26;;;;;;;3.65;2.13;;;;;;;;;;4957285;28;20583;-82
2021/07/16 09:02:56;;;;;;;6.75;4.20;;;;;;;;;;4967802;28;20051;-79
2021/07/16 09:05:35;;;;;;;3.50;2.30;;;;;;;;;;4969866;28;20043;-80
2021/07/16 09:08:04;;;;;;;3.45;2.05;;;;;;;;;;4984581;28;20053;-80
2021/07/16 09:10:31;;;;;;;3.47;1.77;;;;;;;;;;4973561;28;20074;-80
2021/07/16 09:12:59;;;;;;;3.28;2.20;;;;;;;;;;4967099;28;20055;-79
2021/07/16 09:15:27;;;;;;;4.18;2.05;;;;;;;;;;4964782;28;20059;-77
2021/07/16 09:18:13;;;;;;;3.35;2.00;;;;;;;;;;4964446;28;20100;-78
2021/07/16 09:20:41;;;;;;;2.80;1.67;;;;;;;;;;4963698;28;20081;-77
2021/07/16 09:23:11;;;;;;;3.20;2.05;;;;;;;;;;4971183;28;20038;-79
2021/07/16 09:25:38;;;;;;;3.58;1.60;;;;;;;;;;4974249;28;20054;-79
2021/07/16 09:28:06;;;;;;;2.67;1.38;;;;;;;;;;4977303;28;20046;-79
2021/07/16 09:30:33;;;;;;;3.58;1.70;;;;;;;;;;4975563;28;20051;-80
2021/07/16 09:33:03;;;;;;;4.50;2.13;;;;;;;;;;4973745;28;20051;-80
2021/07/16 09:35:33;;;;;;;5.13;3.72;;;;;;;;;;4974019;28;20050;-79
2021/07/16 09:38:03;;;;;;;3.22;1.77;;;;;;;;;;4977444;28;20081;-80
2021/07/16 09:40:33;;;;;;;;;;;;;;;;;;4973536;28;20043;-79
2021/07/16 09:43:01;;;;;;;4.55;2.15;;;;;;;;;;4956986;29;19922;-79
2021/07/16 09:45:28;;;;;;;7.50;2.17;;;;;;;;;;4955591;28;20055;-79
2021/07/16 09:47:55;;;;;;;3.25;1.85;;;;;;;;;;4956659;28;20559;-80
2021/07/16 09:50:25;;;;;;;3.17;1.73;;;;;;;;;;4958689;29;20075;-80
2021/07/16 09:53:13;;;;;;;3.67;1.98;;;;;;;;;;4959667;28;20047;-79
2021/07/16 09:55:42;;;;;;;3.67;1.88;;;;;;;;;;4960281;29;20051;-80
2021/07/16 09:58:27;;;;;;;4.30;1.80;;;;;;;;;;4959846;29;20051;-77
2021/07/16 10:00:54;;;;;;;5.07;2.22;;;;;;;;;;4962766;28;20090;-77
2021/07/16 10:03:21;;;;;;;3.53;1.63;;;;;;;;;;4976084;28;20047;-78
2021/07/16 10:05:50;;;;;;;3.47;1.65;;;;;;;;;;4975087;28;20369;-78
2021/07/16 10:08:18;;;;;;;2.92;1.73;;;;;;;;;;4974209;28;20046;-79
2021/07/16 10:10:48;;;;;;;3.22;1.75;;;;;;;;;;4977502;28;20057;-78
2021/07/16 10:13:15;;;;;;;3.15;1.70;;;;;;;;;;4960434;28;20063;-77
2021/07/16 10:15:43;;;;;;;2.80;1.45;;;;;;;;;;4956008;29;20047;-78
2021/07/16 10:18:12;;;;;;;2.22;1.20;;;;;;;;;;4959913;28;20134;-79
2021/07/16 10:20:39;;;;;;;3.15;1.30;;;;;;;;;;4967561;28;20042;-78
2021/07/16 10:23:06;;;;;;;2.33;1.40;;;;;;;;;;4969202;28;20047;-77
2021/07/16 10:25:34;;;;;;;4.70;1.70;;;;;;;;;;4958951;28;20047;-79
2021/07/16 10:28:02;;;;;;;3.78;1.80;;;;;;;;;;4980843;28;20117;-79
2021/07/16 10:30:34;;;;;;;3.95;1.80;;;;;;;;;;4979581;28;20059;-78
2021/07/16 10:33:01;;;;;;;4.47;1.63;;;;;;;;;;4969868;28;20047;-77
2021/07/16 10:35:30;;;;;;;3.58;1.50;;;;;;;;;;4958517;28;20111;-78
2021/07/16 10:37:59;;;;;;;2.72;1.70;;;;;;;;;;4972205;28;20510;-78
2021/07/16 10:40:43;;;;;;;2.70;1.40;;;;;;;;;;4970610;28;20047;-78
2021/07/16 10:43:41;;;;;;;4.47;2.00;;;;;;;;;;4969069;28;20135;-79
2021/07/16 10:46:34;;;;;;;3.70;2.25;;;;;;;;;;4976765;28;20097;-78
2021/07/16 10:49:02;;;;;;;3.90;1.75;;;;;;;;;;4969823;28;20047;-77
2021/07/16 10:51:31;;;;;;;3.08;1.60;;;;;;;;;;4965628;28;20047;-78
2021/07/16 10:53:59;;;;;;;3.35;1.30;;;;;;;;;;4967864;28;20074;-78
2021/07/16 10:56:47;;;;;;;3.42;2.20;;;;;;;;;;4972760;28;20047;-78
2021/07/16 10:59:52;;;;;;;3.17;1.50;;;;;;;;;;4979204;28;20093;-78
2021/07/16 11:02:45;;;;;;;12.80;6.70;;;;;;;;;;4963730;28;20050;-78
2021/07/16 11:05:49;;;;;;;6.60;3.65;;;;;;;;;;4970768;28;20588;-78
2021/07/16 11:08:49;;;;;;;2.88;1.27;;;;;;;;;;4974833;28;20062;-78
2021/07/16 11:11:21;;;;;;;2.78;1.50;;;;;;;;;;4973041;28;20047;-78
2021/07/16 11:13:52;;;;;;;3.17;1.30;;;;;;;;;;4957269;29;20134;-79
2021/07/16 11:16:41;;;;;;;2.53;1.50;;;;;;;;;;4960420;28;20106;-78
2021/07/16 11:19:20;;;;;;;2.90;1.40;;;;;;;;;;4959391;28;20447;-78
2021/07/16 11:22:01;;;;;;;2.45;1.35;;;;;;;;;;4954600;28;20046;-78
2021/07/16 11:24:43;;;;;;;;;;;;;;;;;;;;;
2021/07/16 11:27:17;;;;;;;2.88;1.40;;;;;;;;;;4953971;29;20051;-78
2021/07/16 11:29:45;;;;;;;3.97;1.45;;;;;;;;;;4955237;29;20095;-77
2021/07/16 11:32:19;;;;;;;4.85;1.40;;;;;;;;;;4955157;29;20051;-78
2021/07/16 11:34:53;;;;;;;3.03;1.80;;;;;;;;;;4955497;29;20141;-78
2021/07/16 11:37:30;;;;;;;3.25;1.67;;;;;;;;;;4956671;28;20051;-80
2021/07/16 11:40:05;;;;;;;2.28;1.23;;;;;;;;;;4956837;29;20047;-79
2021/07/16 11:42:33;;;;;;;1.58;1.02;;;;;;;;;;4955966;28;20442;-79
2021/07/16 11:45:00;;;;;;;3.45;2.10;;;;;;;;;;4954614;29;20504;-79
2021/07/16 11:47:31;;;;;;;3.30;1.63;;;;;;;;;;4954547;29;20504;-79
2021/07/16 11:49:59;;;;;;;;;;;;;;;;;;4955060;29;20047;-77
2021/07/16 11:52:28;;;;;;;3.05;1.55;;;;;;;;;;4954024;29;19933;-77
2021/07/16 11:54:55;;;;;;;2.53;1.30;;;;;;;;;;4957309;29;20071;-79
2021/07/16 11:57:23;;;;;;;1.33;0.90;;;;;;;;;;4957449;29;20110;-79
2021/07/16 11:59:54;;;;;;;1.90;1.20;;;;;;;;;;4957134;29;20393;-78
2021/07/16 12:02:25;;;;;;;2.17;1.30;;;;;;;;;;4985970;28;20051;-76
2021/07/16 12:04:59;;;;;;;1.92;1.20;;;;;;;;;;4983297;28;20046;-79
2021/07/16 12:07:27;;;;;;;2.03;1.20;;;;;;;;;;4973441;28;20046;-79
2021/07/16 12:09:56;;;;;;;2.80;1.10;;;;;;;;;;4975257;28;20121;-79
2021/07/16 12:12:26;;;;;;;4.32;1.40;;;;;;;;;;4961816;28;20047;-78
2021/07/16 12:14:55;;;;;;;2.63;1.70;;;;;;;;;;4953049;28;20074;-79
2021/07/16 12:17:24;;;;;;;4.47;2.08;;;;;;;;;;4952922;29;20480;-78
2021/07/16 12:19:52;;;;;;;3.63;1.50;;;;;;;;;;4953779;29;20051;-79
2021/07/16 12:22:22;;;;;;;1.92;1.10;;;;;;;;;;4953213;28;20119;-78
2021/07/16 12:24:53;;;;;;;1.63;0.98;;;;;;;;;;4953297;29;20451;-79
2021/07/16 12:27:21;;;;;;;2.90;1.30;;;;;;;;;;4953972;29;20134;-78
2021/07/16 12:29:57;;;;;;;1.73;1.00;;;;;;;;;;4957082;29;20051;-78
2021/07/16 12:32:37;;;;;;;1.55;0.95;;;;;;;;;;4956508;28;20412;-78
2021/07/16 12:35:18;;;;;;;;;;;;;;;;;;4956503;29;20051;-78
2021/07/16 12:37:48;;;;;;;2.53;1.30;;;;;;;;;;4957171;28;19923;-77
2021/07/16 12:40:19;;;;;;;1.58;0.90;;;;;;;;;;4956817;29;20103;-79
2021/07/16 12:43:00;;;;;;;2.70;1.05;;;;;;;;;;4956784;29;20058;-79
2021/07/16 12:45:39;;;;;;;2.10;0.95;;;;;;;;;;4975692;23;20428;-79
2021/07/16 12:48:11;;;;;;;3.67;1.10;;;;;;;;;;4974562;28;20495;-78
2021/07/16 12:50:39;;;;;;;1.73;1.10;;;;;;;;;;4974516;28;20102;-79
2021/07/16 12:53:09;;;;;;;1.98;0.90;;;;;;;;;;4975053;28;20054;-85
2021/07/16 12:55:39;;;;;;;1.60;1.00;;;;;;;;;;4946030;28;20051;-79
2021/07/16 12:58:07;;;;;;;;;;;;;;;;;;4936674;29;20051;-79
2021/07/16 13:00:34;;;;;;;2.80;1.10;;;;;;;;;;4935840;29;19927;-80
2021/07/16 13:03:14;;;;;;;1.90;0.90;;;;;;;;;;4941075;29;20043;-79
2021/07/16 13:05:41;;;;;;;2.60;1.10;;;;;;;;;;4943986;28;20115;-79
2021/07/16 13:08:21;;;;;;;1.38;1.00;;;;;;;;;;4949150;29;20039;-79
2021/07/16 13:10:53;;;;;;;1.48;0.90;;;;;;;;;;4954522;29;20496;-80
2021/07/16 13:13:22;;;;;;;2.33;1.00;;;;;;;;;;4954676;29;20067;-79
2021/07/16 13:16:14;;;;;;;1.45;1.05;;;;;;;;;;4957002;28;20539;-79
2021/07/16 13:18:42;;;;;;;1.27;0.90;;;;;;;;;;4953885;29;20051;-80
2021/07/16 13:21:11;;;;;;;1.77;0.80;;;;;;;;;;4954393;29;20536;-79
2021/07/16 13:23:39;;;;;;;1.38;0.80;;;;;;;;;;4954671;29;20103;-80
2021/07/16 13:26:07;;;;;;;1.40;0.85;;;;;;;;;;4953453;29;20047;-79
2021/07/16 13:28:35;;;;;;;1.52;0.90;;;;;;;;;;4957433;28;20055;-78
2021/07/16 13:31:02;;;;;;;2.85;0.90;;;;;;;;;;4957950;28;20051;-79
2021/07/16 13:33:28;;;;;;;3.08;0.90;;;;;;;;;;4957891;29;20047;-80
2021/07/16 13:35:55;;;;;;;1.10;0.65;;;;;;;;;;4957808;29;20106;-81
2021/07/16 13:38:23;;;;;;;2.40;0.90;;;;;;;;;;4957356;28;20552;-78
2021/07/16 13:40:51;;;;;;;2.08;0.80;;;;;;;;;;4957353;28;20051;-79
2021/07/16 13:43:18;;;;;;;1.98;0.82;;;;;;;;;;4957543;28;20456;-80
2021/07/16 13:45:45;;;;;;;1.83;0.90;;;;;;;;;;4957183;29;20051;-79
2021/07/16 13:48:12;;;;;;;1.50;1.00;;;;;;;;;;4957378;28;20055;-79
2021/07/16 13:50:39;;;;;;;1.75;0.90;;;;;;;;;;4958836;29;20108;-80
2021/07/16 13:53:06;;;;;;;1.80;0.88;;;;;;;;;;4957362;29;20055;-79
2021/07/16 13:55:33;;;;;;;1.83;0.77;;;;;;;;;;4956515;29;20079;-78
2021/07/16 13:58:01;;;;;;;1.20;0.60;;;;;;;;;;4957628;28;20047;-80
2021/07/16 14:00:28;;;;;;;0.90;0.60;;;;;;;;;;4959115;28;20051;-79
2021/07/16 14:02:55;;;;;;;1.67;1.02;;;;;;;;;;4974275;29;20074;-79
2021/07/16 14:05:22;;;;;;;1.25;0.73;;;;;;;;;;4974093;28;20047;-79
2021/07/16 14:07:49;;;;;;;1.13;0.70;;;;;;;;;;4963228;29;20047;-79
2021/07/16 14:10:17;;;;;;;1.77;0.68;;;;;;;;;;4958678;28;20070;-80
2021/07/16 14:12:45;;;;;;;2.30;0.70;;;;;;;;;;4957723;28;20102;-80
2021/07/16 14:15:14;;;;;;;1.55;0.90;;;;;;;;;;4956924;28;20138;-80
2021/07/16 14:17:42;;;;;;;1.48;0.85;;;;;;;;;;4957561;28;20047;-79
2021/07/16 14:20:10;;;;;;;2.25;0.70;;;;;;;;;;4957749;28;20102;-79
2021/07/16 14:22:38;;;;;;;1.38;0.85;;;;;;;;;;4957672;28;20169;-79
2021/07/16 14:25:08;;;;;;;2.53;1.13;;;;;;;;;;4956474;29;20464;-79
2021/07/16 14:27:35;;;;;;;3.22;1.50;;;;;;;;;;4957131;29;20571;-80
2021/07/16 14:30:04;;;;;;;3.50;1.80;;;;;;;;;;4957938;28;20134;-80
2021/07/16 14:32:33;;;;;;;4.72;2.10;;;;;;;;;;4957541;28;20051;-80
2021/07/16 14:35:00;;;;;;;3.33;1.30;;;;;;;;;;4957183;28;20051;-79
2021/07/16 14:37:26;;;;;;;2.47;1.00;;;;;;;;;;4957421;28;20051;-80
2021/07/16 14:39:54;;;;;;;5.00;2.65;;;;;;;;;;4956883;28;20058;-79
2021/07/16 14:42:21;;;;;;;5.60;1.40;;;;;;;;;;4958483;28;20051;-79
2021/07/16 14:44:48;;;;;;;1.73;0.70;;;;;;;;;;4957364;28;20114;-79
2021/07/16 14:47:15;;;;;;;1.27;0.70;;;;;;;;;;4957737;29;20062;-80
2021/07/16 14:49:43;;;;;;;1.98;0.82;;;;;;;;;;4957797;29;20105;-80
2021/07/16 14:52:10;;;;;;;1.20;0.70;;;;;;;;;;4957553;28;20559;-80
2021/07/16 14:54:36;;;;;;;1.15;0.68;;;;;;;;;;4956599;28;20055;-81
2021/07/16 14:57:04;;;;;;;1.20;0.63;;;;;;;;;;4957650;28;20048;-79